Time;durP1;ratioP1;P1;durP2;ratioP2;P2;SDS_P1;SDS_P2;PMS_P1;PMS_P2;Temp;Humidity;BMP_temperature;BMP_pressure;BME280_temperature;BME280_humidity;BME280_pressure;Samples;Min_cycle;Max_cycle;Signal;HPM_P1;HPM_P2
2024/04/22 00:00:32;;;;;;;0.55;0.33;;;;;;;5.62;100.00;99343.38;1720374;83;21049;-76
2024/04/22 00:03:01;;;;;;;0.50;0.50;;;;;;;5.62;100.00;99351.52;1720472;82;21082;-77
2024/04/22 00:05:29;;;;;;;0.70;0.70;;;;;;;5.62;100.00;99347.97;1725276;83;21445;-78
2024/04/22 00:07:57;;;;;;;0.68;0.57;;;;;;;5.64;100.00;99354.89;1720324;82;21093;-77
2024/04/22 00:10:26;;;;;;;0.72;0.60;;;;;;;5.66;100.00;99352.83;1725540;83;21040;-77
2024/04/22 00:12:54;;;;;;;1.60;0.50;;;;;;;5.66;100.00;99354.18;1703416;83;21108;-76
2024/04/22 00:15:23;;;;;;;0.62;0.50;;;;;;;5.67;100.00;99360.45;1720321;83;21036;-77
2024/04/22 00:17:51;;;;;;;0.50;0.50;;;;;;;5.68;100.00;99351.27;1720482;83;21101;-76
2024/04/22 00:20:20;;;;;;;0.62;0.50;;;;;;;5.68;100.00;99367.58;1720404;83;21140;-77
2024/04/22 00:22:48;;;;;;;0.60;0.50;;;;;;;5.69;100.00;99366.55;1720317;82;21021;-76
2024/04/22 00:25:16;;;;;;;1.32;0.40;;;;;;;5.68;100.00;99364.86;1725269;83;21041;-77
2024/04/22 00:27:46;;;;;;;0.40;0.40;;;;;;;5.70;100.00;99366.87;1720362;83;21080;-77
2024/04/22 00:30:15;;;;;;;0.68;0.60;;;;;;;5.70;100.00;99370.95;1725498;82;21044;-76
2024/04/22 00:32:45;;;;;;;1.47;0.30;;;;;;;5.72;100.00;99377.03;1725441;82;21080;-76
2024/04/22 00:35:13;;;;;;;0.53;0.42;;;;;;;5.73;100.00;99386.87;1720257;82;21053;-78
2024/04/22 00:37:41;;;;;;;0.30;0.30;;;;;;;5.74;100.00;99391.27;1725575;83;21473;-77
2024/04/22 00:40:10;;;;;;;2.17;0.50;;;;;;;5.74;100.00;99391.27;1720347;82;21017;-77
2024/04/22 00:42:43;;;;;;;0.88;0.50;;;;;;;5.75;100.00;99394.31;1720475;83;21088;-74
2024/04/22 00:45:10;;;;;;;0.37;0.35;;;;;;;5.77;100.00;99396.84;1720251;83;21033;-76
2024/04/22 00:47:38;;;;;;;0.72;0.30;;;;;;;5.80;100.00;99401.38;1720325;83;21227;-76
2024/04/22 00:50:07;;;;;;;0.30;0.30;;;;;;;5.82;100.00;99410.70;1720427;82;21100;-76
2024/04/22 00:52:36;;;;;;;0.37;0.20;;;;;;;5.82;100.00;99412.90;1697107;82;21528;-77
2024/04/22 00:55:05;;;;;;;0.20;0.20;;;;;;;5.83;100.00;99409.14;1725410;82;21068;-78
2024/04/22 00:57:33;;;;;;;0.30;0.30;;;;;;;5.85;100.00;99422.55;1720264;83;21064;-76
2024/04/22 01:00:03;;;;;;;0.70;0.30;;;;;;;5.84;100.00;99409.47;1720424;83;21502;-77
2024/04/22 01:02:32;;;;;;;0.30;0.20;;;;;;;5.84;100.00;99434.45;1720361;83;21068;-78
2024/04/22 01:05:00;;;;;;;0.20;0.20;;;;;;;5.83;100.00;99417.30;1720317;83;21552;-77
2024/04/22 01:07:29;;;;;;;0.50;0.40;;;;;;;5.86;100.00;99423.74;1720403;82;21067;-78
2024/04/22 01:09:59;;;;;;;0.20;0.20;;;;;;;5.88;100.00;99422.20;1720413;83;21074;-76
2024/04/22 01:12:28;;;;;;;0.30;0.30;;;;;;;5.90;100.00;99438.67;1720350;83;21072;-77
2024/04/22 01:14:56;;;;;;;0.40;0.40;;;;;;;5.91;100.00;99430.84;1720362;83;21021;-77
2024/04/22 01:17:40;;;;;;;0.40;0.40;;;;;;;5.92;100.00;99438.48;1720281;83;21092;-75
2024/04/22 01:20:10;;;;;;;0.60;0.42;;;;;;;5.92;100.00;99439.32;1725472;83;21001;-78
2024/04/22 01:22:38;;;;;;;1.45;0.47;;;;;;;5.94;100.00;99448.64;1720438;83;21056;-76
2024/04/22 01:25:07;;;;;;;0.25;0.25;;;;;;;5.97;100.00;99453.70;1720413;83;21033;-77
2024/04/22 01:27:36;;;;;;;0.90;0.50;;;;;;;5.98;100.00;99449.95;1720298;83;21509;-77
2024/04/22 01:30:06;;;;;;;0.60;0.40;;;;;;;5.99;100.00;99469.30;1720383;82;21506;-78
2024/04/22 01:32:35;;;;;;;0.65;0.30;;;;;;;6.00;100.00;99482.70;1720443;82;21005;-77
2024/04/22 01:35:04;;;;;;;0.68;0.30;;;;;;;6.00;100.00;99462.31;1725414;83;21044;-77
2024/04/22 01:37:32;;;;;;;0.70;0.42;;;;;;;6.00;100.00;99472.35;1720341;82;21088;-80
2024/04/22 01:40:01;;;;;;;0.20;0.20;;;;;;;6.02;100.00;99477.92;1720229;83;21069;-79
2024/04/22 01:42:29;;;;;;;0.28;0.23;;;;;;;6.03;100.00;99479.61;1720376;82;21334;-77
2024/04/22 01:44:58;;;;;;;0.25;0.20;;;;;;;6.06;100.00;99480.26;1720324;82;21044;-77
2024/04/22 01:47:26;;;;;;;0.20;0.20;;;;;;;6.08;100.00;99490.43;1703295;83;21077;-77
2024/04/22 01:49:54;;;;;;;0.28;0.28;;;;;;;6.08;100.00;99489.91;1720525;82;21089;-77
2024/04/22 01:52:23;;;;;;;1.42;0.37;;;;;;;6.09;100.00;99492.11;1725736;82;21052;-77
2024/04/22 01:54:51;;;;;;;0.30;0.30;;;;;;;6.10;99.75;99503.31;1720316;83;21080;-77
2024/04/22 01:57:19;;;;;;;0.23;0.20;;;;;;;6.09;99.46;99503.83;1727586;82;21098;-78
2024/04/22 01:59:48;;;;;;;1.00;0.40;;;;;;;6.11;99.09;99503.64;1727902;82;21012;-76
2024/04/22 02:02:16;;;;;;;1.30;0.30;;;;;;;6.12;98.60;99511.61;1727904;82;21003;-76
2024/04/22 02:04:45;;;;;;;0.20;0.20;;;;;;;6.14;98.45;99517.70;1727814;83;21043;-79
2024/04/22 02:07:13;;;;;;;2.27;0.37;;;;;;;6.16;98.14;99515.63;1727834;82;21063;-76
2024/04/22 02:09:41;;;;;;;0.50;0.30;;;;;;;6.17;97.97;99525.48;1727760;83;21027;-77
2024/04/22 02:12:10;;;;;;;0.10;0.10;;;;;;;6.18;97.62;99531.76;1727799;82;21051;-78
2024/04/22 02:14:38;;;;;;;0.40;0.30;;;;;;;6.19;97.77;99530.73;1727765;82;21032;-76
2024/04/22 02:17:06;;;;;;;1.27;0.40;;;;;;;6.21;97.75;99534.09;1727726;82;21019;-77
2024/04/22 02:19:35;;;;;;;0.37;0.30;;;;;;;6.23;97.86;99545.63;1727801;82;21067;-78
2024/04/22 02:22:04;;;;;;;0.30;0.30;;;;;;;6.23;97.85;99544.27;1727784;82;21107;-77
2024/04/22 02:24:32;;;;;;;0.30;0.30;;;;;;;6.25;97.90;99553.08;1727748;83;21055;-78
2024/04/22 02:27:00;;;;;;;2.10;0.40;;;;;;;6.28;97.97;99558.14;1728098;83;21003;-78
2024/04/22 02:29:29;;;;;;;0.30;0.30;;;;;;;6.28;97.70;99551.34;1727954;83;21012;-79
2024/04/22 02:31:57;;;;;;;0.30;0.30;;;;;;;6.28;97.62;99558.98;1727989;82;21027;-78
2024/04/22 02:34:25;;;;;;;0.30;0.30;;;;;;;6.29;97.57;99559.83;1727826;83;21468;-77
2024/04/22 02:36:53;;;;;;;0.75;0.53;;;;;;;6.29;97.04;99572.91;1727753;82;21080;-77
2024/04/22 02:39:22;;;;;;;0.40;0.20;;;;;;;6.30;96.91;99572.39;1727602;82;21103;-78
2024/04/22 02:41:50;;;;;;;1.10;1.00;;;;;;;6.30;96.55;99586.00;1727910;82;21071;-78
2024/04/22 02:44:18;;;;;;;0.30;0.30;;;;;;;6.32;96.64;99578.48;1727797;82;21047;-78
2024/04/22 02:46:47;;;;;;;0.40;0.20;;;;;;;6.34;96.59;99577.78;1727892;82;21090;-77
2024/04/22 02:49:15;;;;;;;0.25;0.20;;;;;;;6.33;96.53;99593.78;1727476;82;21428;-79
2024/04/22 02:51:43;;;;;;;1.27;0.53;;;;;;;6.33;96.51;99593.26;1727807;83;21082;-79
2024/04/22 02:54:12;;;;;;;0.50;0.40;;;;;;;6.34;96.51;99599.03;1727739;82;21448;-79
2024/04/22 02:56:40;;;;;;;1.00;0.40;;;;;;;6.35;96.49;99602.59;1729258;82;21511;-78
2024/04/22 02:59:08;;;;;;;0.30;0.30;;;;;;;6.36;96.72;99611.08;1727954;82;20996;-80
2024/04/22 03:01:36;;;;;;;2.37;0.30;;;;;;;6.35;96.73;99608.88;1727648;82;21027;-78
2024/04/22 03:04:05;;;;;;;0.68;0.50;;;;;;;6.36;96.68;99605.64;1727912;83;21000;-78
2024/04/22 03:06:34;;;;;;;1.55;0.40;;;;;;;6.38;96.38;99615.81;1727627;83;21046;-79
2024/04/22 03:09:02;;;;;;;0.20;0.20;;;;;;;6.38;96.02;99613.61;1727609;83;21423;-78
2024/04/22 03:11:31;;;;;;;0.55;0.40;;;;;;;6.38;95.25;99621.77;1727745;82;21063;-79
2024/04/22 03:13:59;;;;;;;0.40;0.40;;;;;;;6.40;95.30;99621.06;1727822;83;21094;-78
2024/04/22 03:16:27;;;;;;;0.35;0.35;;;;;;;6.42;95.21;99630.73;1727523;82;21444;-79
2024/04/22 03:18:56;;;;;;;0.50;0.40;;;;;;;6.45;95.05;99633.59;1727942;83;21047;-78
2024/04/22 03:21:24;;;;;;;0.93;0.40;;;;;;;6.45;94.37;99639.03;1727616;83;21344;-78
2024/04/22 03:23:53;;;;;;;0.33;0.30;;;;;;;6.47;93.92;99645.97;1727670;82;21031;-78
2024/04/22 03:26:21;;;;;;;0.23;0.23;;;;;;;6.48;93.27;99652.25;1727720;83;21517;-78
2024/04/22 03:28:49;;;;;;;1.00;0.40;;;;;;;6.49;93.21;99650.70;1727887;83;21471;-77
2024/04/22 03:31:18;;;;;;;0.85;0.40;;;;;;;6.51;92.94;99654.11;1727731;82;21533;-78
2024/04/22 03:33:46;;;;;;;0.98;0.50;;;;;;;6.53;92.36;99664.29;1727753;82;21549;-78
2024/04/22 03:36:14;;;;;;;2.05;0.60;;;;;;;6.55;92.40;99673.11;1728016;82;21052;-79
2024/04/22 03:38:43;;;;;;;1.05;0.50;;;;;;;6.57;92.48;99657.95;1728031;82;21023;-77
2024/04/22 03:41:11;;;;;;;0.70;0.50;;;;;;;6.60;92.49;99667.09;1727763;82;21012;-78
2024/04/22 03:43:40;;;;;;;1.07;0.60;;;;;;;6.61;92.49;99668.27;1727938;82;20987;-79
2024/04/22 03:51:42;;;;;;;0.45;0.45;;;;;;;6.63;92.17;99683.89;1727892;82;21666;-78
2024/04/22 03:54:11;;;;;;;1.52;0.75;;;;;;;6.65;91.96;99680.98;1728053;83;21099;-78
2024/04/22 03:56:39;;;;;;;2.40;1.65;;;;;;;6.65;91.85;99694.07;1734084;82;21507;-78
2024/04/22 03:59:07;;;;;;;1.90;0.80;;;;;;;6.67;92.03;99685.20;1729376;83;21048;-78
2024/04/22 04:01:36;;;;;;;0.95;0.60;;;;;;;6.69;91.79;99682.28;1729784;83;21044;-78
2024/04/22 04:04:04;;;;;;;1.60;0.60;;;;;;;6.68;90.97;99684.68;1729712;83;21009;-79
2024/04/22 04:06:33;;;;;;;0.60;0.53;;;;;;;6.68;90.81;99695.05;1745460;82;21475;-77
2024/04/22 04:09:01;;;;;;;0.75;0.50;;;;;;;6.70;90.25;99689.94;1729846;83;20988;-78
2024/04/22 04:11:36;;;;;;;1.87;0.60;;;;;;;6.68;90.21;99693.69;1746589;82;21524;-78
2024/04/22 04:14:05;;;;;;;0.93;0.50;;;;;;;6.71;90.30;99699.78;1731353;82;21036;-79
2024/04/22 04:16:34;;;;;;;0.85;0.50;;;;;;;6.71;90.29;99697.06;1729868;82;21020;-78
2024/04/22 04:19:02;;;;;;;0.65;0.40;;;;;;;6.73;90.53;99712.69;1745491;82;21003;-79
2024/04/22 04:21:31;;;;;;;0.62;0.37;;;;;;;6.75;90.69;99727.80;1729616;83;20988;-78
2024/04/22 04:23:59;;;;;;;0.50;0.40;;;;;;;6.77;90.22;99733.06;1730123;83;21008;-77
2024/04/22 04:26:28;;;;;;;0.80;0.40;;;;;;;6.77;89.62;99735.78;1745526;82;21075;-79
2024/04/22 04:28:56;;;;;;;0.82;0.40;;;;;;;6.81;89.60;99737.09;1746171;82;21005;-78
2024/04/22 04:31:24;;;;;;;0.45;0.40;;;;;;;6.83;89.25;99735.02;1729568;83;21171;-79
2024/04/22 04:33:53;;;;;;;1.05;0.50;;;;;;;6.86;88.89;99749.09;1730069;82;21023;-78
2024/04/22 04:36:21;;;;;;;0.70;0.60;;;;;;;6.92;88.87;99758.39;1729425;83;21031;-78
2024/04/22 04:38:49;;;;;;;2.45;0.28;;;;;;;6.97;88.76;99768.19;1745749;82;21027;-78
2024/04/22 04:41:20;;;;;;;1.07;0.40;;;;;;;7.00;87.70;99763.21;1729329;83;21497;-79
2024/04/22 04:43:48;;;;;;;1.50;0.50;;;;;;;7.03;87.19;99767.95;1719632;82;21044;-79
2024/04/22 04:46:16;;;;;;;0.85;0.50;;;;;;;7.04;87.09;99771.84;1729535;83;21004;-79
2024/04/22 04:48:45;;;;;;;0.72;0.40;;;;;;;7.08;87.02;99783.20;1729601;83;21012;-77
2024/04/22 04:51:13;;;;;;;1.50;0.80;;;;;;;7.10;86.78;99773.81;1745494;82;21062;-78
2024/04/22 04:53:42;;;;;;;3.12;0.80;;;;;;;7.14;86.75;99786.02;1729687;83;21015;-78
2024/04/22 04:56:10;;;;;;;0.90;0.70;;;;;;;7.17;86.57;99773.92;1745662;81;21559;-80
2024/04/22 04:58:38;;;;;;;14.85;13.48;;;;;;;7.19;86.50;99776.78;1729460;83;21020;-77
2024/04/22 05:01:07;;;;;;;2.87;1.32;;;;;;;7.22;86.52;99785.09;1729577;83;21520;-79
2024/04/22 05:03:36;;;;;;;1.07;0.70;;;;;;;7.23;86.64;99780.81;1729342;83;21451;-80
2024/04/22 05:06:05;;;;;;;1.27;0.93;;;;;;;7.25;86.49;99785.55;1729408;83;21076;-77
2024/04/22 05:08:34;;;;;;;1.57;0.70;;;;;;;7.27;86.46;99790.29;1745443;82;21475;-79
2024/04/22 05:11:04;;;;;;;1.40;0.82;;;;;;;7.30;86.41;99787.70;1746120;82;21031;-79
2024/04/22 05:13:32;;;;;;;0.93;0.60;;;;;;;7.30;85.80;99798.08;1729620;83;21032;-78
2024/04/22 05:16:01;;;;;;;1.62;0.90;;;;;;;7.31;85.43;99799.77;1729685;83;21028;-80
2024/04/22 05:18:29;;;;;;;2.10;0.80;;;;;;;7.32;85.55;99800.61;1729750;82;21083;-80
2024/04/22 05:20:58;;;;;;;0.95;0.50;;;;;;;7.35;85.33;99808.92;1729516;82;21104;-78
2024/04/22 05:23:26;;;;;;;2.10;1.05;;;;;;;7.36;85.24;99805.16;1730147;83;21028;-82
2024/04/22 05:25:57;;;;;;;6.47;1.40;;;;;;;7.39;85.28;99820.61;1745406;82;21046;-81
2024/04/22 05:28:27;;;;;;;2.17;1.25;;;;;;;7.41;85.12;99824.52;1729802;83;21060;-79
2024/04/22 05:30:56;;;;;;;4.33;1.55;;;;;;;7.43;85.18;99823.80;1745641;82;21063;-79
2024/04/22 05:36:14;;;;;;;8.38;2.90;;;;;;;7.47;84.87;99840.09;1745644;82;21119;-80
2024/04/22 05:38:43;;;;;;;7.55;2.98;;;;;;;7.52;85.15;99848.03;1712340;83;21115;-78
2024/04/22 05:41:11;;;;;;;8.10;2.65;;;;;;;7.55;85.42;99851.73;1745437;82;21043;-80
2024/04/22 05:43:39;;;;;;;5.95;1.90;;;;;;;7.57;85.26;99858.36;1725323;82;21087;-76
2024/04/22 05:46:08;;;;;;;2.92;1.32;;;;;;;7.58;85.70;99862.25;1712054;83;21115;-78
2024/04/22 05:48:36;;;;;;;6.03;1.67;;;;;;;7.62;86.10;99864.92;1729443;83;21521;-78
2024/04/22 05:51:05;;;;;;;4.10;2.05;;;;;;;7.66;86.21;99863.17;1745285;82;20980;-80
2024/04/22 05:53:34;;;;;;;8.90;2.90;;;;;;;7.68;86.23;99875.58;1729365;83;21028;-80
2024/04/22 05:56:03;;;;;;;6.35;2.45;;;;;;;7.73;86.56;99880.45;1729894;83;21012;-79
2024/04/22 05:58:32;;;;;;;4.87;2.10;;;;;;;7.83;86.89;99890.56;1723652;82;21023;-80
2024/04/22 06:01:01;;;;;;;2.05;1.30;;;;;;;7.90;86.72;99898.31;1720136;82;20996;-80
2024/04/22 06:03:30;;;;;;;5.53;1.90;;;;;;;7.95;86.59;99898.58;1719946;82;21067;-81
2024/04/22 06:05:58;;;;;;;5.65;2.12;;;;;;;8.04;86.62;99917.87;1720030;82;21032;-82
2024/04/22 06:08:28;;;;;;;7.05;2.20;;;;;;;8.11;86.55;99916.58;1720115;82;21071;-80
2024/04/22 06:10:57;;;;;;;5.55;2.10;;;;;;;8.16;86.50;99919.58;1720343;82;21032;-80
2024/04/22 06:13:25;;;;;;;4.70;2.25;;;;;;;8.22;86.47;99933.28;1720072;82;21019;-79
2024/04/22 06:15:54;;;;;;;3.83;1.32;;;;;;;8.26;86.14;99932.37;1707896;82;21464;-81
2024/04/22 06:18:22;;;;;;;3.00;1.30;;;;;;;8.29;85.75;99940.18;1719792;83;21503;-80
2024/04/22 06:20:51;;;;;;;2.58;1.50;;;;;;;8.33;85.34;99948.34;1719887;83;21083;-81
2024/04/22 06:23:19;;;;;;;4.25;1.62;;;;;;;8.29;84.51;99952.45;1719972;82;21067;-80
2024/04/22 06:25:48;;;;;;;2.72;1.70;;;;;;;8.28;84.63;99963.05;1719989;82;21063;-79
2024/04/22 06:28:17;;;;;;;4.83;1.50;;;;;;;8.28;84.43;99984.37;1708131;83;21028;-80
2024/04/22 06:30:47;;;;;;;3.52;1.67;;;;;;;8.27;83.42;99981.31;1720129;82;21016;-85
2024/04/22 06:33:16;;;;;;;3.58;1.72;;;;;;;8.25;83.24;99987.48;1720134;82;21048;-82
2024/04/22 06:35:44;;;;;;;4.05;1.67;;;;;;;8.28;83.55;99994.44;1721455;83;21459;-81
2024/04/22 06:38:13;;;;;;;3.50;1.70;;;;;;;8.30;83.50;100011.47;1721096;83;21000;-81
2024/04/22 06:40:42;;;;;;;4.20;1.80;;;;;;;8.31;82.79;100035.52;1720198;83;21055;-82
2024/04/22 06:43:11;;;;;;;6.03;2.17;;;;;;;8.31;82.67;100037.72;1720208;82;21432;-81
2024/04/22 06:45:40;;;;;;;3.83;1.65;;;;;;;8.33;82.23;100036.17;1720393;82;21281;-82
2024/04/22 06:48:09;;;;;;;2.35;1.35;;;;;;;8.33;81.65;100034.31;1720078;82;21063;-81
2024/04/22 06:50:37;;;;;;;2.98;1.10;;;;;;;8.33;81.25;100053.42;1720152;83;21045;-81
2024/04/22 06:53:06;;;;;;;2.35;1.32;;;;;;;8.30;79.72;100054.30;1666363;85;21084;-81
2024/04/22 06:55:35;;;;;;;2.50;1.22;;;;;;;8.25;79.19;100069.88;1720206;83;21065;-80
2024/04/22 06:58:04;;;;;;;2.37;1.10;;;;;;;8.20;79.02;100073.18;1724191;82;21028;-81
2024/04/22 07:00:32;;;;;;;2.20;1.30;;;;;;;8.20;78.70;100088.19;1727841;82;21451;-81
2024/04/22 07:03:01;;;;;;;1.90;0.98;;;;;;;8.21;78.73;100093.13;1727826;83;21015;-82
2024/04/22 07:05:30;;;;;;;3.80;1.47;;;;;;;8.22;78.57;100085.27;1727827;82;21007;-81
2024/04/22 07:07:58;;;;;;;1.25;1.00;;;;;;;8.23;78.45;100088.33;1727778;83;21070;-81
2024/04/22 07:10:27;;;;;;;2.22;1.30;;;;;;;8.27;78.53;100091.00;1728023;82;21027;-80
2024/04/22 07:12:56;;;;;;;3.02;1.60;;;;;;;8.27;78.15;100095.95;1727958;82;21058;-80
2024/04/22 07:15:24;;;;;;;2.33;1.30;;;;;;;8.30;78.29;100109.73;1728052;83;21447;-81
2024/04/22 07:17:53;;;;;;;2.60;1.10;;;;;;;8.32;77.61;100117.21;1727927;83;21004;-80
2024/04/22 07:20:22;;;;;;;2.77;1.20;;;;;;;8.35;77.59;100114.13;1727737;82;21070;-80
2024/04/22 07:22:50;;;;;;;2.52;1.27;;;;;;;8.38;77.48;100119.21;1727759;83;21062;-81
2024/04/22 07:25:20;;;;;;;3.40;1.70;;;;;;;8.39;76.51;100129.61;1727715;83;21031;-78
2024/04/22 07:27:50;;;;;;;2.42;1.40;;;;;;;8.39;76.31;100143.27;1727838;83;21035;-79
2024/04/22 07:30:21;;;;;;;3.33;1.42;;;;;;;8.41;76.41;100139.83;1727648;83;21090;-80
2024/04/22 07:32:50;;;;;;;1.57;1.20;;;;;;;8.43;76.34;100144.58;1727661;83;21079;-80
2024/04/22 07:35:20;;;;;;;3.87;1.70;;;;;;;8.42;75.64;100154.65;1727766;83;20996;-78
2024/04/22 07:37:49;;;;;;;4.15;1.72;;;;;;;8.42;75.56;100161.47;1727861;83;21096;-81
2024/04/22 07:40:20;;;;;;;1.90;1.40;;;;;;;8.45;76.18;100169.80;1727802;82;21027;-82
2024/04/22 07:42:49;;;;;;;2.85;1.40;;;;;;;8.47;75.87;100178.17;1727893;82;20996;-81
2024/04/22 07:45:17;;;;;;;2.33;1.20;;;;;;;8.48;75.80;100181.74;1727571;83;21458;-79
2024/04/22 07:47:49;;;;;;;3.90;1.60;;;;;;;8.48;75.70;100179.02;1727873;83;21083;-82
2024/04/22 07:50:19;;;;;;;3.12;1.40;;;;;;;8.49;75.97;100182.92;1727919;83;21078;-80
2024/04/22 07:52:50;;;;;;;2.70;1.50;;;;;;;8.52;76.22;100189.88;1727750;83;21518;-78
2024/04/22 07:55:21;;;;;;;5.35;1.67;;;;;;;8.54;76.74;100187.30;1727596;82;21272;-81
2024/04/22 07:57:51;;;;;;;4.45;1.27;;;;;;;8.58;76.74;100199.53;1727195;82;21179;-79
2024/04/22 08:00:22;;;;;;;9.45;1.67;;;;;;;8.63;75.64;100202.21;1720447;82;21041;-78
2024/04/22 08:02:51;;;;;;;2.25;1.50;;;;;;;8.66;75.77;100203.20;1720300;82;21172;-78
2024/04/22 08:05:22;;;;;;;3.83;1.80;;;;;;;8.70;76.07;100207.23;1728284;82;21524;-76
2024/04/22 08:07:51;;;;;;;3.98;2.00;;;;;;;8.73;76.55;100201.39;1748343;82;21020;-79
2024/04/22 08:10:21;;;;;;;3.62;1.25;;;;;;;8.73;75.69;100213.17;1748174;81;21027;-77
2024/04/22 08:12:50;;;;;;;2.70;1.70;;;;;;;8.77;75.66;100209.53;1748333;82;21048;-77
2024/04/22 08:15:19;;;;;;;1.52;1.20;;;;;;;8.77;75.55;100216.36;1753880;82;21034;-77
2024/04/22 08:17:48;;;;;;;2.62;1.40;;;;;;;8.78;75.46;100228.98;1730972;82;21114;-78
2024/04/22 08:20:17;;;;;;;3.27;2.27;;;;;;;8.76;75.12;100231.06;1758362;79;21081;-80
2024/04/22 08:22:45;;;;;;;3.30;1.85;;;;;;;8.74;75.18;100238.59;1706358;83;21040;-79
2024/04/22 08:25:15;;;;;;;2.33;1.40;;;;;;;8.75;75.54;100234.83;1749142;82;21034;-77
2024/04/22 08:27:43;;;;;;;1.82;1.30;;;;;;;8.77;75.01;100239.59;1749968;81;21050;-76
2024/04/22 08:30:12;;;;;;;2.42;1.35;;;;;;;8.78;75.07;100234.45;1739843;81;21011;-78
2024/04/22 08:32:42;;;;;;;3.25;1.57;;;;;;;8.81;75.24;100239.53;1738280;81;21455;-80
2024/04/22 08:35:10;;;;;;;3.95;1.47;;;;;;;8.83;74.91;100246.50;1754022;81;21059;-77
2024/04/22 08:37:40;;;;;;;2.55;1.90;;;;;;;8.90;75.00;100241.97;1754573;82;21082;-79
2024/04/22 08:40:10;;;;;;;2.17;1.50;;;;;;;8.95;74.22;100253.69;1755590;82;21070;-78
2024/04/22 08:42:40;;;;;;;3.95;1.45;;;;;;;8.99;73.48;100259.10;1755489;82;21094;-81
2024/04/22 08:45:09;;;;;;;4.00;1.90;;;;;;;9.02;73.06;100261.45;1755475;82;21106;-77
2024/04/22 08:47:37;;;;;;;3.67;1.30;;;;;;;9.06;72.68;100268.75;1732659;82;21450;-77
2024/04/22 08:50:07;;;;;;;2.42;1.20;;;;;;;9.09;71.67;100276.56;1755491;82;21030;-77
2024/04/22 08:52:38;;;;;;;3.67;1.30;;;;;;;9.07;71.03;100274.55;1733165;81;21054;-78
2024/04/22 08:55:10;;;;;;;1.37;1.12;;;;;;;9.06;71.31;100276.43;1753474;81;21035;-78
2024/04/22 08:57:40;;;;;;;2.67;1.25;;;;;;;9.09;72.09;100277.41;1753354;82;21050;-77
2024/04/22 09:00:09;;;;;;;2.90;1.35;;;;;;;9.13;72.11;100291.06;1709289;83;22085;-78
2024/04/22 09:02:39;;;;;;;3.12;1.45;;;;;;;9.18;71.66;100285.87;1686690;85;21095;-77
2024/04/22 09:05:10;;;;;;;3.55;1.55;;;;;;;9.19;71.87;100299.86;1745448;81;21112;-78
2024/04/22 09:07:51;;;;;;;5.47;2.05;;;;;;;9.20;70.92;100296.09;1709358;84;21073;-78
2024/04/22 09:10:22;;;;;;;2.35;1.65;;;;;;;9.20;71.13;100304.81;1728518;82;21080;-78
2024/04/22 09:13:00;;;;;;;3.85;2.10;;;;;;;9.22;71.42;100308.20;1708121;83;21022;-76
2024/04/22 09:15:31;;;;;;;4.12;1.85;;;;;;;9.25;70.95;100306.97;1727222;82;21057;-75
2024/04/22 09:18:02;;;;;;;4.17;1.60;;;;;;;9.26;71.04;100312.25;1701344;83;21104;-74
2024/04/22 09:20:34;;;;;;;2.47;1.55;;;;;;;9.36;71.72;100310.05;1686515;85;21090;-77
2024/04/22 09:23:03;;;;;;;6.55;1.92;;;;;;;9.52;71.46;100318.55;1745198;81;21032;-75
2024/04/22 09:25:32;;;;;;;1.72;1.40;;;;;;;9.68;71.27;100315.57;1709631;84;21628;-78
2024/04/22 09:28:01;;;;;;;3.30;1.45;;;;;;;9.84;70.34;100315.88;1749471;79;21029;-77
2024/04/22 09:30:33;;;;;;;5.17;1.50;;;;;;;9.99;70.11;100318.55;1806879;79;21039;-78
2024/04/22 09:33:01;;;;;;;2.33;1.60;;;;;;;10.08;69.07;100320.10;1807096;79;21023;-75
2024/04/22 09:35:30;;;;;;;2.22;1.55;;;;;;;10.09;68.52;100314.43;1806799;79;20948;-76
2024/04/22 09:37:59;;;;;;;2.20;1.35;;;;;;;10.10;68.82;100318.02;1807032;79;21473;-77
2024/04/22 09:40:27;;;;;;;4.83;1.57;;;;;;;10.12;68.63;100320.03;1807092;79;21023;-76
2024/04/22 09:42:56;;;;;;;7.72;1.70;;;;;;;10.13;68.25;100312.14;1806874;79;21039;-77
2024/04/22 09:45:25;;;;;;;2.60;1.62;;;;;;;10.15;68.87;100314.16;1806802;79;20972;-77
2024/04/22 09:47:54;;;;;;;3.42;1.57;;;;;;;10.21;69.01;100322.14;1806970;79;21055;-75
2024/04/22 09:50:23;;;;;;;2.65;1.60;;;;;;;10.29;68.37;100314.64;1806809;79;21140;-75
2024/04/22 09:52:52;;;;;;;3.67;1.70;;;;;;;10.35;67.43;100311.63;1786570;79;20980;-77
2024/04/22 09:55:21;;;;;;;4.17;1.80;;;;;;;10.42;66.86;100309.81;1806963;79;20967;-77
2024/04/22 09:57:53;;;;;;;2.85;1.80;;;;;;;10.51;66.97;100310.52;1807216;78;21000;-78
2024/04/22 10:00:21;;;;;;;3.50;1.72;;;;;;;10.63;66.81;100315.77;1825912;78;21054;-79
2024/04/22 10:02:51;;;;;;;2.50;1.50;;;;;;;10.71;66.10;100323.30;1767424;78;21093;-75
2024/04/22 10:05:22;;;;;;;3.87;1.60;;;;;;;10.76;65.86;100332.30;1825669;78;20987;-73
2024/04/22 10:07:51;;;;;;;1.40;1.20;;;;;;;10.80;65.20;100347.29;1825591;78;21466;-74
2024/04/22 10:10:20;;;;;;;2.98;1.32;;;;;;;10.77;64.46;100355.39;1825941;78;21050;-77
2024/04/22 10:12:50;;;;;;;2.50;1.10;;;;;;;10.77;64.01;100354.02;1825729;78;21010;-76
2024/04/22 10:15:20;;;;;;;2.75;1.10;;;;;;;10.81;63.82;100359.95;1825735;78;21078;-75
2024/04/22 10:17:50;;;;;;;4.58;1.45;;;;;;;10.83;63.20;100361.96;1825859;78;21426;-80
2024/04/22 10:20:21;;;;;;;5.15;1.90;;;;;;;10.83;63.08;100362.48;1825992;78;21077;-78
2024/04/22 10:22:50;;;;;;;1.95;1.10;;;;;;;10.88;63.32;100362.73;1825844;78;21010;-76
2024/04/22 10:25:18;;;;;;;3.02;1.10;;;;;;;10.89;62.72;100374.02;1794349;78;21070;-74
2024/04/22 10:27:47;;;;;;;2.55;1.05;;;;;;;10.90;62.70;100380.67;1794372;78;21046;-74
2024/04/22 10:30:16;;;;;;;1.87;1.22;;;;;;;10.95;62.16;100377.33;1761946;81;21061;-75
2024/04/22 10:32:45;;;;;;;2.17;1.20;;;;;;;10.98;62.28;100382.41;1732493;81;20982;-75
2024/04/22 10:35:14;;;;;;;3.33;1.07;;;;;;;11.06;62.65;100383.66;1732592;81;21006;-76
2024/04/22 10:37:43;;;;;;;2.02;1.05;;;;;;;11.13;61.76;100372.20;1761853;81;21009;-76
2024/04/22 10:40:12;;;;;;;2.05;1.10;;;;;;;11.16;61.30;100384.66;1761882;81;21053;-76
2024/04/22 10:42:41;;;;;;;1.80;1.00;;;;;;;11.18;61.69;100380.67;1732966;81;21065;-78
2024/04/22 10:45:11;;;;;;;1.67;1.07;;;;;;;11.24;61.80;100382.60;1762002;81;20988;-75
2024/04/22 10:47:39;;;;;;;2.42;1.10;;;;;;;11.31;61.29;100393.61;1761822;81;21001;-76
2024/04/22 10:50:17;;;;;;;5.30;1.25;;;;;;;11.38;60.77;100391.75;1761898;81;21052;-75
2024/04/22 10:52:47;;;;;;;2.33;1.17;;;;;;;11.41;59.67;100392.71;1761719;81;21126;-76
2024/04/22 10:55:17;;;;;;;1.85;0.95;;;;;;;11.42;59.46;100388.92;1761805;81;21013;-76
2024/04/22 10:57:46;;;;;;;3.10;1.20;;;;;;;11.43;59.96;100400.22;1761813;81;20977;-77
2024/04/22 11:00:19;;;;;;;1.87;1.40;;;;;;;11.44;59.82;100396.42;1744693;81;21495;-73
2024/04/22 11:03:03;;;;;;;5.37;1.70;;;;;;;11.45;60.88;100389.88;1743352;82;20983;-75
2024/04/22 11:05:33;;;;;;;2.30;1.25;;;;;;;11.52;61.57;100400.89;1743103;82;21050;-75
2024/04/22 11:08:03;;;;;;;1.50;1.20;;;;;;;11.60;62.01;100395.22;1742910;82;21053;-74
2024/04/22 11:10:32;;;;;;;3.45;1.92;;;;;;;11.64;61.40;100404.22;1742970;82;21037;-73
2024/04/22 11:13:02;;;;;;;3.85;1.50;;;;;;;11.66;60.05;100400.74;1741048;82;21030;-73
2024/04/22 11:15:31;;;;;;;3.70;1.62;;;;;;;11.67;60.43;100412.04;1742882;82;21407;-76
2024/04/22 11:18:07;;;;;;;1.45;1.22;;;;;;;11.69;60.91;100415.95;1743005;82;21446;-74
2024/04/22 11:20:36;;;;;;;2.55;1.20;;;;;;;11.76;61.40;100415.48;1742758;82;21019;-71
2024/04/22 11:23:06;;;;;;;1.22;1.00;;;;;;;11.85;60.63;100409.32;1742796;82;21633;-76
2024/04/22 11:25:36;;;;;;;1.72;1.00;;;;;;;11.93;60.02;100418.75;1692007;82;21053;-77
2024/04/22 11:28:06;;;;;;;2.52;1.35;;;;;;;11.96;59.77;100419.70;1719495;81;21010;-76
2024/04/22 11:30:43;;;;;;;3.25;1.30;;;;;;;11.96;58.38;100405.45;1773453;81;21032;-76
2024/04/22 11:33:11;;;;;;;8.93;1.03;;;;;;;11.91;58.11;100420.85;1774033;81;21431;-75
2024/04/22 11:35:41;;;;;;;1.72;1.20;;;;;;;11.91;57.60;100407.13;1773726;81;21003;-77
2024/04/22 11:38:16;;;;;;;1.20;0.90;;;;;;;11.89;57.66;100422.44;1773373;81;21515;-74
2024/04/22 11:40:47;;;;;;;2.55;1.20;;;;;;;11.90;57.68;100415.89;1773230;81;21115;-76
2024/04/22 11:43:16;;;;;;;3.30;1.10;;;;;;;11.91;57.78;100426.34;1773652;81;20955;-74
2024/04/22 11:45:46;;;;;;;2.75;1.60;;;;;;;11.97;59.40;100429.11;1773768;81;20999;-74
2024/04/22 11:48:17;;;;;;;2.10;1.70;;;;;;;12.05;59.75;100433.05;1773657;81;20960;-75
2024/04/22 11:50:46;;;;;;;2.27;1.20;;;;;;;12.10;58.84;100432.42;1773488;81;21477;-74